Terminal Aerodrome Forecast
Issued by NWS

Home | Current Version | Previous Version | Graphics & Text | Print | Product List | Glossary On
Versions: 1 2 3 4 5 6 7 8 9 10 11 12 13 14 15 16 17 18 19 20 21 22 23 24 25 26 27 28 29 30 31 32 33 34
000
FTUS43 KGRB 120500
TAFRHI
TAF
KRHI 120520Z 1206/1306 VRB03KT P6SM SKC
      TEMPO 1207/1211 1 1/2SM BR
     FM121300 VRB03KT P6SM SCT040 BKN120
     FM121600 27003KT P6SM BKN040 OVC100
      TEMPO 1220/1223 -SHRA BKN025
     FM122300 VRB03KT 5SM -RA BR BKN008 OVC018=

USA.gov is the U.S. government's official web portal to all federal, state and local government web resources and services.